Time;durP1;ratioP1;P1;durP2;ratioP2;P2;SDS_P1;SDS_P2;PMS_P1;PMS_P2;Temp;Humidity;BMP_temperature;BMP_pressure;BME280_temperature;BME280_humidity;BME280_pressure;Samples;Min_cycle;Max_cycle;Signal;HPM_P1;HPM_P2
2024/03/04 00:00:53;;;;;;;;;;;;;;;;;;5054774;28;5045;-59
2024/03/04 00:03:18;;;;;;;;;;;;;;;;;;5050770;28;5250;-60
2024/03/04 00:05:44;;;;;;;;;;;;;;;;;;5058065;28;1279;-60
2024/03/04 00:08:09;;;;;;;;;;;;;;;;;;5048534;28;5104;-60
2024/03/04 00:10:34;;;;;;;;;;;;;;;;;;5058229;28;4882;-59
2024/03/04 00:13:00;;;;;;;;;;;;;;;;;;5048390;28;5086;-59
2024/03/04 00:15:25;;;;;;;;;;;;;;;;;;5045975;28;5043;-59
2024/03/04 00:17:50;;;;;;;;;;;;;;;;;;5055231;28;3529;-60
2024/03/04 00:20:16;;;;;;;;;;;;;;;;;;5057731;28;5259;-59
2024/03/04 00:22:45;;;;;;;;;;;;;;;;;;5047228;28;5128;-59
2024/03/04 00:25:15;;;;;;;;;;;;;;;;;;5050851;28;4571;-60
2024/03/04 00:27:41;;;;;;;;;;;;;;;;;;5059872;28;4987;-59
2024/03/04 00:30:07;;;;;;;;;;;;;;;;;;5057444;28;4726;-59
2024/03/04 00:32:32;;;;;;;;;;;;;;;;;;5046938;28;3397;-59
2024/03/04 00:34:58;;;;;;;;;;;;;;;;;;5050826;28;4478;-59
2024/03/04 00:37:24;;;;;;;;;;;;;;;;;;5042665;28;4688;-59
2024/03/04 00:39:49;;;;;;;;;;;;;;;;;;5047763;28;5548;-59
2024/03/04 00:42:16;;;;;;;;;;;;;;;;;;5055648;28;4638;-59
2024/03/04 00:44:42;;;;;;;;;;;;;;;;;;5059570;28;3292;-58
2024/03/04 00:47:07;;;;;;;;;;;;;;;;;;5053092;28;5020;-58
2024/03/04 00:49:33;;;;;;;;;;;;;;;;;;5053411;28;4983;-58
2024/03/04 00:51:58;;;;;;;;;;;;;;;;;;5056519;28;4553;-59
2024/03/04 00:54:24;;;;;;;;;;;;;;;;;;5037076;28;5985;-59
2024/03/04 00:56:49;;;;;;;;;;;;;;;;;;5029505;28;3302;-60
2024/03/04 00:59:15;;;;;;;;;;;;;;;;;;5025434;28;5167;-59
2024/03/04 01:01:40;;;;;;;;;;;;;;;;;;5047624;28;5054;-59
2024/03/04 01:04:05;;;;;;;;;;;;;;;;;;5049724;28;4950;-59
2024/03/04 01:06:30;;;;;;;;;;;;;;;;;;5050236;28;5592;-59
2024/03/04 01:08:57;;;;;;;;;;;;;;;;;;5050220;28;5126;-58
2024/03/04 01:11:22;;;;;;;;;;;;;;;;;;5047374;28;3285;-59
2024/03/04 01:13:48;;;;;;;;;;;;;;;;;;5043400;28;4849;-59
2024/03/04 01:16:13;;;;;;;;;;;;;;;;;;5045339;28;5059;-59
2024/03/04 01:18:40;;;;;;;;;;;;;;;;;;5049200;28;4499;-60
2024/03/04 01:21:06;;;;;;;;;;;;;;;;;;5045505;28;5086;-59
2024/03/04 01:23:31;;;;;;;;;;;;;;;;;;5048945;28;1546;-59
2024/03/04 01:25:57;;;;;;;;;;;;;;;;;;5049992;28;5439;-59
2024/03/04 01:28:22;;;;;;;;;;;;;;;;;;5058765;28;4720;-59
2024/03/04 01:30:49;;;;;;;;;;;;;;;;;;5046285;28;5042;-59
2024/03/04 01:33:15;;;;;;;;;;;;;;;;;;5044712;28;5372;-59
2024/03/04 01:35:40;;;;;;;;;;;;;;;;;;5049351;28;3536;-60
2024/03/04 01:38:06;;;;;;;;;;;;;;;;;;5046865;28;4990;-59
2024/03/04 01:40:31;;;;;;;;;;;;;;;;;;5047241;28;4997;-59
2024/03/04 01:42:57;;;;;;;;;;;;;;;;;;5048847;28;4583;-59
2024/03/04 01:45:25;;;;;;;;;;;;;;;;;;5021149;28;5120;-59
2024/03/04 01:47:57;;;;;;;;;;;;;;;;;;5045282;28;3478;-58
2024/03/04 01:50:24;;;;;;;;;;;;;;;;;;5045324;28;4594;-58
2024/03/04 01:52:49;;;;;;;;;;;;;;;;;;5046102;28;5078;-59
2024/03/04 01:55:15;;;;;;;;;;;;;;;;;;5049541;28;4684;-59
2024/03/04 01:57:40;;;;;;;;;;;;;;;;;;5063209;28;5142;-59
2024/03/04 02:00:11;;;;;;;;;;;;;;;;;;5045288;28;5158;-60
2024/03/04 02:02:37;;;;;;;;;;;;;;;;;;5061015;28;3172;-58
2024/03/04 02:05:08;;;;;;;;;;;;;;;;;;5041174;28;5494;-58
2024/03/04 02:07:34;;;;;;;;;;;;;;;;;;5040636;28;5222;-58
2024/03/04 02:09:59;;;;;;;;;;;;;;;;;;5068829;28;5076;-58
2024/03/04 02:12:24;;;;;;;;;;;;;;;;;;5065520;28;5067;-58
2024/03/04 02:14:50;;;;;;;;;;;;;;;;;;5056916;28;3300;-60
2024/03/04 02:17:15;;;;;;;;;;;;;;;;;;5066451;28;5093;-58
2024/03/04 02:19:40;;;;;;;;;;;;;;;;;;5048511;28;5243;-58
2024/03/04 02:22:07;;;;;;;;;;;;;;;;;;5047089;28;5111;-58
2024/03/04 02:24:33;;;;;;;;;;;;;;;;;;5066848;28;5006;-59
2024/03/04 02:26:59;;;;;;;;;;;;;;;;;;5058762;28;4629;-59
2024/03/04 02:29:24;;;;;;;;;;;;;;;;;;5051658;28;3315;-57
2024/03/04 02:31:49;;;;;;;;;;;;;;;;;;5052016;28;5130;-60
2024/03/04 02:34:16;;;;;;;;;;;;;;;;;;5033136;28;5032;-62
2024/03/04 02:36:41;;;;;;;;;;;;;;;;;;5037513;28;5244;-60
2024/03/04 02:39:10;;;;;;;;;;;;;;;;;;5051631;28;5052;-57
2024/03/04 02:41:37;;;;;;;;;;;;;;;;;;5054581;28;1175;-60
2024/03/04 02:44:02;;;;;;;;;;;;;;;;;;5046936;28;4657;-57
2024/03/04 02:46:28;;;;;;;;;;;;;;;;;;5056973;28;4939;-60
2024/03/04 02:48:55;;;;;;;;;;;;;;;;;;5054617;28;5188;-59
2024/03/04 02:51:20;;;;;;;;;;;;;;;;;;5063846;28;4878;-60
2024/03/04 02:53:46;;;;;;;;;;;;;;;;;;5054021;28;3279;-60
2024/03/04 02:56:11;;;;;;;;;;;;;;;;;;5051136;28;5157;-59
2024/03/04 02:58:36;;;;;;;;;;;;;;;;;;5061911;28;5212;-60
2024/03/04 03:01:01;;;;;;;;;;;;;;;;;;5048789;28;4937;-59
2024/03/04 03:03:27;;;;;;;;;;;;;;;;;;5048926;28;5156;-59
2024/03/04 03:05:52;;;;;;;;;;;;;;;;;;5063621;28;3218;-60
2024/03/04 03:08:17;;;;;;;;;;;;;;;;;;5059234;28;5056;-59
2024/03/04 03:10:44;;;;;;;;;;;;;;;;;;5053335;28;5107;-59
2024/03/04 03:13:09;;;;;;;;;;;;;;;;;;5055389;28;5160;-59
2024/03/04 03:15:34;;;;;;;;;;;;;;;;;;5055701;28;5102;-59
2024/03/04 03:18:00;;;;;;;;;;;;;;;;;;5068159;28;5123;-59
2024/03/04 03:20:26;;;;;;;;;;;;;;;;;;5055922;28;1271;-60
2024/03/04 03:22:51;;;;;;;;;;;;;;;;;;5052269;28;4557;-60
2024/03/04 03:25:16;;;;;;;;;;;;;;;;;;5032487;28;5397;-59
2024/03/04 03:27:42;;;;;;;;;;;;;;;;;;5058222;28;4511;-60
2024/03/04 03:30:08;;;;;;;;;;;;;;;;;;5048542;28;4493;-59
2024/03/04 03:32:35;;;;;;;;;;;;;;;;;;5036459;28;2770;-60
2024/03/04 03:35:00;;;;;;;;;;;;;;;;;;5050726;28;4460;-60
2024/03/04 03:37:25;;;;;;;;;;;;;;;;;;5057359;28;4753;-59
2024/03/04 03:39:51;;;;;;;;;;;;;;;;;;5054018;28;5038;-59
2024/03/04 03:42:16;;;;;;;;;;;;;;;;;;5055388;28;5187;-59
2024/03/04 03:44:41;;;;;;;;;;;;;;;;;;5040728;28;3441;-59
2024/03/04 03:47:06;;;;;;;;;;;;;;;;;;5050178;28;5078;-61
2024/03/04 03:49:32;;;;;;;;;;;;;;;;;;5044127;28;5047;-59
2024/03/04 03:51:57;;;;;;;;;;;;;;;;;;5058657;28;4511;-59
2024/03/04 03:54:22;;;;;;;;;;;;;;;;;;5037190;28;5018;-61
2024/03/04 03:56:48;;;;;;;;;;;;;;;;;;5057442;28;3364;-60
2024/03/04 03:59:13;;;;;;;;;;;;;;;;;;5050263;28;5106;-58
2024/03/04 04:01:38;;;;;;;;;;;;;;;;;;5053472;28;5014;-58
2024/03/04 04:04:04;;;;;;;;;;;;;;;;;;5047347;28;5234;-59
2024/03/04 04:06:29;;;;;;;;;;;;;;;;;;5050707;28;4675;-59
2024/03/04 04:08:55;;;;;;;;;;;;;;;;;;5057534;28;5058;-59
2024/03/04 04:11:20;;;;;;;;;;;;;;;;;;5036570;28;3537;-59
2024/03/04 04:13:45;;;;;;;;;;;;;;;;;;5046413;28;4561;-58
2024/03/04 04:16:11;;;;;;;;;;;;;;;;;;5038922;28;5012;-59
2024/03/04 04:18:36;;;;;;;;;;;;;;;;;;5042968;28;4580;-58
2024/03/04 04:21:03;;;;;;;;;;;;;;;;;;5042095;28;5253;-58
2024/03/04 04:23:28;;;;;;;;;;;;;;;;;;5044774;28;3468;-58
2024/03/04 04:25:53;;;;;;;;;;;;;;;;;;5045694;28;4726;-58
2024/03/04 04:28:19;;;;;;;;;;;;;;;;;;5045349;28;5177;-59
2024/03/04 04:30:44;;;;;;;;;;;;;;;;;;5047274;28;4951;-59
2024/03/04 04:33:09;;;;;;;;;;;;;;;;;;5049363;28;5190;-59
2024/03/04 04:35:35;;;;;;;;;;;;;;;;;;5027837;28;3365;-60
2024/03/04 04:38:00;;;;;;;;;;;;;;;;;;5046960;28;4578;-59
2024/03/04 04:40:26;;;;;;;;;;;;;;;;;;5044792;28;5080;-59
2024/03/04 04:42:51;;;;;;;;;;;;;;;;;;5025426;28;4562;-59
2024/03/04 04:45:17;;;;;;;;;;;;;;;;;;5051697;28;4637;-59
2024/03/04 04:47:42;;;;;;;;;;;;;;;;;;5055065;28;1125;-59
2024/03/04 04:50:08;;;;;;;;;;;;;;;;;;5036788;28;5379;-59
2024/03/04 04:52:33;;;;;;;;;;;;;;;;;;5049222;28;4717;-59
2024/03/04 04:54:59;;;;;;;;;;;;;;;;;;5051278;28;5183;-59
2024/03/04 04:57:25;;;;;;;;;;;;;;;;;;5059538;28;5055;-59
2024/03/04 04:59:50;;;;;;;;;;;;;;;;;;5051199;28;3284;-59
2024/03/04 05:02:16;;;;;;;;;;;;;;;;;;5051431;28;4919;-60
2024/03/04 05:04:44;;;;;;;;;;;;;;;;;;5053105;28;4993;-60
2024/03/04 05:07:09;;;;;;;;;;;;;;;;;;5064180;28;4611;-59
2024/03/04 05:09:34;;;;;;;;;;;;;;;;;;5059450;28;5031;-59
2024/03/04 05:12:00;;;;;;;;;;;;;;;;;;5058996;28;4832;-59
2024/03/04 05:14:25;;;;;;;;;;;;;;;;;;5056912;28;1394;-59
2024/03/04 05:16:50;;;;;;;;;;;;;;;;;;5055142;28;5151;-60
2024/03/04 05:19:16;;;;;;;;;;;;;;;;;;5051644;28;4675;-59
2024/03/04 05:21:43;;;;;;;;;;;;;;;;;;5059911;28;4787;-59
2024/03/04 05:24:08;;;;;;;;;;;;;;;;;;5051411;28;5265;-59
2024/03/04 05:26:34;;;;;;;;;;;;;;;;;;5060550;28;1246;-59
2024/03/04 05:29:00;;;;;;;;;;;;;;;;;;5054327;28;4548;-59
2024/03/04 05:31:25;;;;;;;;;;;;;;;;;;5055065;28;5207;-59
2024/03/04 05:33:50;;;;;;;;;;;;;;;;;;5059805;28;4512;-59
2024/03/04 05:36:16;;;;;;;;;;;;;;;;;;5053693;28;5052;-59
2024/03/04 05:38:42;;;;;;;;;;;;;;;;;;5057390;28;1468;-59
2024/03/04 05:41:07;;;;;;;;;;;;;;;;;;5057003;28;4995;-59
2024/03/04 05:43:32;;;;;;;;;;;;;;;;;;5051973;28;4980;-59
2024/03/04 05:45:58;;;;;;;;;;;;;;;;;;5061039;28;4866;-59
2024/03/04 05:48:23;;;;;;;;;;;;;;;;;;5049519;28;4922;-59
2024/03/04 05:50:48;;;;;;;;;;;;;;;;;;5060233;28;1112;-59
2024/03/04 05:53:15;;;;;;;;;;;;;;;;;;5065185;28;5912;-59
2024/03/04 05:55:40;;;;;;;;;;;;;;;;;;5053733;28;5316;-59
2024/03/04 05:58:05;;;;;;;;;;;;;;;;;;5051381;28;5057;-59
2024/03/04 06:00:32;;;;;;;;;;;;;;;;;;5059395;28;4674;-59
2024/03/04 06:02:57;;;;;;;;;;;;;;;;;;5053219;28;5048;-60
2024/03/04 06:05:22;;;;;;;;;;;;;;;;;;5056505;28;1339;-59
2024/03/04 06:07:48;;;;;;;;;;;;;;;;;;5061883;28;5085;-59
2024/03/04 06:10:13;;;;;;;;;;;;;;;;;;5060906;28;5822;-59
2024/03/04 06:12:39;;;;;;;;;;;;;;;;;;5044167;28;5186;-59
2024/03/04 06:15:04;;;;;;;;;;;;;;;;;;5052210;28;5080;-59
2024/03/04 06:17:30;;;;;;;;;;;;;;;;;;5058789;28;2280;-59
2024/03/04 06:19:55;;;;;;;;;;;;;;;;;;5052759;28;4602;-59
2024/03/04 06:22:20;;;;;;;;;;;;;;;;;;5059924;28;4743;-60
2024/03/04 06:24:45;;;;;;;;;;;;;;;;;;5058302;28;4565;-59
2024/03/04 06:27:11;;;;;;;;;;;;;;;;;;5055796;28;4963;-59
2024/03/04 06:29:36;;;;;;;;;;;;;;;;;;5047286;28;3295;-59
2024/03/04 06:32:02;;;;;;;;;;;;;;;;;;5051717;28;4999;-59
2024/03/04 06:34:29;;;;;;;;;;;;;;;;;;5058173;28;5045;-59
2024/03/04 06:36:54;;;;;;;;;;;;;;;;;;5055511;28;4769;-59
2024/03/04 06:39:20;;;;;;;;;;;;;;;;;;5052833;28;4543;-59
2024/03/04 06:41:49;;;;;;;;;;;;;;;;;;5047010;28;3225;-59
2024/03/04 06:44:14;;;;;;;;;;;;;;;;;;5052887;28;5093;-59
2024/03/04 06:46:40;;;;;;;;;;;;;;;;;;5060248;28;5099;-59
2024/03/04 06:49:05;;;;;;;;;;;;;;;;;;5058476;28;4998;-59
2024/03/04 06:51:35;;;;;;;;;;;;;;;;;;5053666;28;5024;-64
2024/03/04 06:54:01;;;;;;;;;;;;;;;;;;5058260;28;4987;-63
2024/03/04 06:56:26;;;;;;;;;;;;;;;;;;5066309;28;1971;-63
2024/03/04 06:58:51;;;;;;;;;;;;;;;;;;5046847;28;4945;-63
2024/03/04 07:01:17;;;;;;;;;;;;;;;;;;5057248;28;5053;-63
2024/03/04 07:03:45;;;;;;;;;;;;;;;;;;5045250;28;4663;-60
2024/03/04 07:06:13;;;;;;;;;;;;;;;;;;5013473;28;5297;-61
2024/03/04 07:08:39;;;;;;;;;;;;;;;;;;5021573;28;1140;-60
2024/03/04 07:11:04;;;;;;;;;;;;;;;;;;5017955;28;5033;-60
2024/03/04 07:13:29;;;;;;;;;;;;;;;;;;5017559;28;4866;-61
2024/03/04 07:15:56;;;;;;;;;;;;;;;;;;5019978;28;5680;-60
2024/03/04 07:18:22;;;;;;;;;;;;;;;;;;5020053;28;5092;-62
2024/03/04 07:20:47;;;;;;;;;;;;;;;;;;5022555;28;3367;-62
2024/03/04 07:23:12;;;;;;;;;;;;;;;;;;5015971;28;5805;-63
2024/03/04 07:25:38;;;;;;;;;;;;;;;;;;5019157;28;5123;-64
2024/03/04 07:28:03;;;;;;;;;;;;;;;;;;5021154;28;4904;-62
2024/03/04 07:30:29;;;;;;;;;;;;;;;;;;5015488;28;5073;-62
2024/03/04 07:32:54;;;;;;;;;;;;;;;;;;5007108;28;4680;-63
2024/03/04 07:35:19;;;;;;;;;;;;;;;;;;5014331;28;2203;-62
2024/03/04 07:37:45;;;;;;;;;;;;;;;;;;5019276;28;5962;-62
2024/03/04 07:40:10;;;;;;;;;;;;;;;;;;5016591;28;5083;-65
2024/03/04 07:42:35;;;;;;;;;;;;;;;;;;5018476;28;4808;-62
2024/03/04 07:45:01;;;;;;;;;;;;;;;;;;5035176;28;4683;-61
2024/03/04 07:47:26;;;;;;;;;;;;;;;;;;5017656;28;1234;-64
2024/03/04 07:49:51;;;;;;;;;;;;;;;;;;5016979;28;5030;-63
2024/03/04 07:52:17;;;;;;;;;;;;;;;;;;5019877;28;5162;-62
2024/03/04 07:54:42;;;;;;;;;;;;;;;;;;5019012;28;4890;-62
2024/03/04 07:57:07;;;;;;;;;;;;;;;;;;5023607;28;4663;-61
2024/03/04 07:59:33;;;;;;;;;;;;;;;;;;5015863;28;1081;-63
2024/03/04 08:02:00;;;;;;;;;;;;;;;;;;5018082;28;5150;-60
2024/03/04 08:04:26;;;;;;;;;;;;;;;;;;5014576;28;4876;-60
2024/03/04 08:06:51;;;;;;;;;;;;;;;;;;5022476;28;5996;-59
2024/03/04 08:09:16;;;;;;;;;;;;;;;;;;5028165;28;5062;-57
2024/03/04 08:11:42;;;;;;;;;;;;;;;;;;5029583;28;3271;-56
2024/03/04 08:14:07;;;;;;;;;;;;;;;;;;5029986;28;5097;-58
2024/03/04 08:16:32;;;;;;;;;;;;;;;;;;5032712;28;4472;-59
2024/03/04 08:18:58;;;;;;;;;;;;;;;;;;5031925;28;5090;-58
2024/03/04 08:21:23;;;;;;;;;;;;;;;;;;5044878;28;4885;-58
2024/03/04 08:23:48;;;;;;;;;;;;;;;;;;5032333;28;2916;-57
2024/03/04 08:26:14;;;;;;;;;;;;;;;;;;5033267;28;4605;-56
2024/03/04 08:28:40;;;;;;;;;;;;;;;;;;5033486;28;5269;-57
2024/03/04 08:31:06;;;;;;;;;;;;;;;;;;5049212;28;5038;-56
2024/03/04 08:33:31;;;;;;;;;;;;;;;;;;5013514;28;5084;-56
2024/03/04 08:35:56;;;;;;;;;;;;;;;;;;5037018;28;4541;-59
2024/03/04 08:38:22;;;;;;;;;;;;;;;;;;5035712;28;3215;-59
2024/03/04 08:40:47;;;;;;;;;;;;;;;;;;5035589;28;5105;-59
2024/03/04 08:43:13;;;;;;;;;;;;;;;;;;5035014;28;4877;-57
2024/03/04 08:45:39;;;;;;;;;;;;;;;;;;5034097;28;5324;-59
2024/03/04 08:48:04;;;;;;;;;;;;;;;;;;5033782;28;5033;-60
2024/03/04 08:50:30;;;;;;;;;;;;;;;;;;5036566;28;3308;-58
2024/03/04 08:52:55;;;;;;;;;;;;;;;;;;5049708;28;5224;-59
2024/03/04 08:55:24;;;;;;;;;;;;;;;;;;5017779;28;5050;-64
2024/03/04 08:57:50;;;;;;;;;;;;;;;;;;5035338;28;5074;-63
2024/03/04 09:00:15;;;;;;;;;;;;;;;;;;5036651;28;4622;-66
2024/03/04 09:02:42;;;;;;;;;;;;;;;;;;5033630;28;2353;-65
2024/03/04 09:05:08;;;;;;;;;;;;;;;;;;5051276;28;5110;-62
2024/03/04 09:07:34;;;;;;;;;;;;;;;;;;5034794;28;5886;-61
2024/03/04 09:10:00;;;;;;;;;;;;;;;;;;5029044;28;5158;-62
2024/03/04 09:12:27;;;;;;;;;;;;;;;;;;5012387;28;5177;-65
2024/03/04 09:14:52;;;;;;;;;;;;;;;;;;5033844;28;1433;-62
2024/03/04 09:17:17;;;;;;;;;;;;;;;;;;5034073;28;5078;-60
2024/03/04 09:19:44;;;;;;;;;;;;;;;;;;5032926;28;5089;-63
2024/03/04 09:22:09;;;;;;;;;;;;;;;;;;5031552;28;5556;-62
2024/03/04 09:24:35;;;;;;;;;;;;;;;;;;5014584;28;5271;-63
2024/03/04 09:27:03;;;;;;;;;;;;;;;;;;5032091;28;5020;-68
2024/03/04 09:29:28;;;;;;;;;;;;;;;;;;5050374;28;1005;-66
2024/03/04 09:31:54;;;;;;;;;;;;;;;;;;5029738;28;4792;-67
2024/03/04 09:34:19;;;;;;;;;;;;;;;;;;5032677;28;4503;-68
2024/03/04 09:36:44;;;;;;;;;;;;;;;;;;5032515;28;5212;-68
2024/03/04 09:39:09;;;;;;;;;;;;;;;;;;5030793;28;4581;-67
2024/03/04 09:41:35;;;;;;;;;;;;;;;;;;5030469;28;3251;-68
2024/03/04 09:44:01;;;;;;;;;;;;;;;;;;5032980;28;5093;-62
2024/03/04 09:46:26;;;;;;;;;;;;;;;;;;5032565;28;4903;-66
2024/03/04 09:48:52;;;;;;;;;;;;;;;;;;5048363;28;4987;-64
2024/03/04 09:51:17;;;;;;;;;;;;;;;;;;5032354;28;4543;-64
2024/03/04 09:53:42;;;;;;;;;;;;;;;;;;5029961;28;1643;-64
2024/03/04 09:56:08;;;;;;;;;;;;;;;;;;5049426;28;5053;-63
2024/03/04 09:58:33;;;;;;;;;;;;;;;;;;5031834;28;5006;-65
2024/03/04 10:00:59;;;;;;;;;;;;;;;;;;5048129;28;5244;-64
2024/03/04 10:03:24;;;;;;;;;;;;;;;;;;5042450;28;5090;-64
2024/03/04 10:05:50;;;;;;;;;;;;;;;;;;5031461;28;3295;-63
2024/03/04 10:08:15;;;;;;;;;;;;;;;;;;5034891;28;5137;-61
2024/03/04 10:10:40;;;;;;;;;;;;;;;;;;5032984;28;5046;-61
2024/03/04 10:13:10;;;;;;;;;;;;;;;;;;5033364;28;4481;-61
2024/03/04 10:15:35;;;;;;;;;;;;;;;;;;5015989;28;5066;-60
2024/03/04 10:18:10;;;;;;;;;;;;;;;;;;5032173;28;4826;-60
2024/03/04 10:20:35;;;;;;;;;;;;;;;;;;5015225;28;1221;-60
2024/03/04 10:23:01;;;;;;;;;;;;;;;;;;5031731;28;4610;-60
2024/03/04 10:25:26;;;;;;;;;;;;;;;;;;5029238;28;5107;-59
2024/03/04 10:27:51;;;;;;;;;;;;;;;;;;5034384;28;4493;-60
2024/03/04 10:30:17;;;;;;;;;;;;;;;;;;5033366;28;5024;-60
2024/03/04 10:32:49;;;;;;;;;;;;;;;;;;5031822;28;3331;-60
2024/03/04 10:35:17;;;;;;;;;;;;;;;;;;5034811;28;5006;-60
2024/03/04 10:37:43;;;;;;;;;;;;;;;;;;5033047;28;4778;-60
2024/03/04 10:40:11;;;;;;;;;;;;;;;;;;5033662;28;4602;-60
2024/03/04 10:42:40;;;;;;;;;;;;;;;;;;5032030;28;4658;-60
2024/03/04 10:45:17;;;;;;;;;;;;;;;;;;5033603;28;4531;-60
2024/03/04 10:47:44;;;;;;;;;;;;;;;;;;5033459;28;2140;-60
2024/03/04 10:50:09;;;;;;;;;;;;;;;;;;5027406;28;5012;-60
2024/03/04 10:52:35;;;;;;;;;;;;;;;;;;5027102;28;5176;-60
2024/03/04 10:55:00;;;;;;;;;;;;;;;;;;5018895;28;4966;-64
2024/03/04 10:57:29;;;;;;;;;;;;;;;;;;5029768;28;5061;-64
2024/03/04 10:59:58;;;;;;;;;;;;;;;;;;5034230;28;5044;-65
2024/03/04 11:02:31;;;;;;;;;;;;;;;;;;5031175;28;3165;-64
2024/03/04 11:04:57;;;;;;;;;;;;;;;;;;5033673;28;4909;-64
2024/03/04 11:07:23;;;;;;;;;;;;;;;;;;5033937;28;4496;-65
2024/03/04 11:09:50;;;;;;;;;;;;;;;;;;5031911;28;5266;-65
2024/03/04 11:12:17;;;;;;;;;;;;;;;;;;5011373;28;5221;-64
2024/03/04 11:14:43;;;;;;;;;;;;;;;;;;5032959;28;3277;-65
2024/03/04 11:17:28;;;;;;;;;;;;;;;;;;5029531;28;5034;-64
2024/03/04 11:19:54;;;;;;;;;;;;;;;;;;5028829;28;5028;-64
2024/03/04 11:22:19;;;;;;;;;;;;;;;;;;5018228;28;5227;-59
2024/03/04 11:24:47;;;;;;;;;;;;;;;;;;5047448;28;5091;-59
2024/03/04 11:27:14;;;;;;;;;;;;;;;;;;5058755;28;5033;-59
2024/03/04 11:29:40;;;;;;;;;;;;;;;;;;5033708;28;2253;-59
2024/03/04 11:32:05;;;;;;;;;;;;;;;;;;5053728;28;4503;-59
2024/03/04 11:34:31;;;;;;;;;;;;;;;;;;5053489;28;4725;-59
2024/03/04 11:36:59;;;;;;;;;;;;;;;;;;5044560;28;5157;-59
2024/03/04 11:39:25;;;;;;;;;;;;;;;;;;5061289;28;4974;-59
2024/03/04 11:41:52;;;;;;;;;;;;;;;;;;5050901;28;1036;-59
2024/03/04 11:44:24;;;;;;;;;;;;;;;;;;5038472;28;4638;-59
2024/03/04 11:46:49;;;;;;;;;;;;;;;;;;5039406;28;4745;-59
2024/03/04 11:49:28;;;;;;;;;;;;;;;;;;5051540;28;5066;-60
2024/03/04 11:52:04;;;;;;;;;;;;;;;;;;5054887;28;5470;-59
2024/03/04 11:54:37;;;;;;;;;;;;;;;;;;5059907;28;4941;-60
2024/03/04 11:57:03;;;;;;;;;;;;;;;;;;5062433;28;5250;-59
2024/03/04 11:59:28;;;;;;;;;;;;;;;;;;5030588;28;2914;-59
2024/03/04 12:01:53;;;;;;;;;;;;;;;;;;5050459;28;4826;-59
2024/03/04 12:04:19;;;;;;;;;;;;;;;;;;5049357;28;4648;-59
2024/03/04 12:06:47;;;;;;;;;;;;;;;;;;5036225;28;4500;-59
2024/03/04 12:09:15;;;;;;;;;;;;;;;;;;5058479;28;5059;-60
2024/03/04 12:11:40;;;;;;;;;;;;;;;;;;5073522;28;1534;-60
2024/03/04 12:14:06;;;;;;;;;;;;;;;;;;5048402;28;5006;-59
2024/03/04 12:16:33;;;;;;;;;;;;;;;;;;5046962;28;4647;-59
2024/03/04 12:18:59;;;;;;;;;;;;;;;;;;5053591;28;5095;-59
2024/03/04 12:21:24;;;;;;;;;;;;;;;;;;5049130;28;5954;-59
2024/03/04 12:23:50;;;;;;;;;;;;;;;;;;5056788;28;1105;-59
2024/03/04 12:26:15;;;;;;;;;;;;;;;;;;5055524;28;5011;-59
2024/03/04 12:28:40;;;;;;;;;;;;;;;;;;5046135;28;4522;-59
2024/03/04 12:31:12;;;;;;;;;;;;;;;;;;5067135;28;4545;-59
2024/03/04 12:33:38;;;;;;;;;;;;;;;;;;5063824;28;4494;-59
2024/03/04 12:36:06;;;;;;;;;;;;;;;;;;5052867;28;5006;-59
2024/03/04 12:38:32;;;;;;;;;;;;;;;;;;5054857;28;3274;-59
2024/03/04 12:40:58;;;;;;;;;;;;;;;;;;5060915;28;4441;-59
2024/03/04 12:43:23;;;;;;;;;;;;;;;;;;5053171;28;5042;-59
2024/03/04 12:45:49;;;;;;;;;;;;;;;;;;5050101;28;5095;-59
2024/03/04 12:48:14;;;;;;;;;;;;;;;;;;5055969;28;5050;-59
2024/03/04 12:50:41;;;;;;;;;;;;;;;;;;5062810;28;1081;-59
2024/03/04 12:53:06;;;;;;;;;;;;;;;;;;5060308;28;5342;-59
2024/03/04 12:55:32;;;;;;;;;;;;;;;;;;5047055;28;5164;-59
2024/03/04 12:57:58;;;;;;;;;;;;;;;;;;5053380;28;5096;-59
2024/03/04 13:00:23;;;;;;;;;;;;;;;;;;5046882;28;4934;-59
2024/03/04 13:02:49;;;;;;;;;;;;;;;;;;5049548;28;3314;-59
2024/03/04 13:05:14;;;;;;;;;;;;;;;;;;5050576;28;4825;-60
2024/03/04 13:07:40;;;;;;;;;;;;;;;;;;5057894;28;4597;-59
2024/03/04 13:10:06;;;;;;;;;;;;;;;;;;5061553;28;5087;-59
2024/03/04 13:12:35;;;;;;;;;;;;;;;;;;5045151;28;5169;-59
2024/03/04 13:15:01;;;;;;;;;;;;;;;;;;5045769;28;5055;-59
2024/03/04 13:17:27;;;;;;;;;;;;;;;;;;5030113;28;3252;-59
2024/03/04 13:19:52;;;;;;;;;;;;;;;;;;5060624;28;5104;-59
2024/03/04 13:22:17;;;;;;;;;;;;;;;;;;5061696;28;4527;-59
2024/03/04 13:24:43;;;;;;;;;;;;;;;;;;5055064;28;5140;-59
2024/03/04 13:27:09;;;;;;;;;;;;;;;;;;5064195;28;5419;-60
2024/03/04 13:29:34;;;;;;;;;;;;;;;;;;5055464;28;3334;-59
2024/03/04 13:31:59;;;;;;;;;;;;;;;;;;5049135;28;4955;-60
2024/03/04 13:34:25;;;;;;;;;;;;;;;;;;5049461;28;4700;-59
2024/03/04 13:36:50;;;;;;;;;;;;;;;;;;5048736;28;5109;-59
2024/03/04 13:39:15;;;;;;;;;;;;;;;;;;5055973;28;4518;-59
2024/03/04 13:41:41;;;;;;;;;;;;;;;;;;5069567;28;3269;-59
2024/03/04 13:44:06;;;;;;;;;;;;;;;;;;5054884;28;4982;-59
2024/03/04 13:46:31;;;;;;;;;;;;;;;;;;5030190;28;5131;-60
2024/03/04 13:48:57;;;;;;;;;;;;;;;;;;5042950;28;4555;-59
2024/03/04 13:51:22;;;;;;;;;;;;;;;;;;5048303;28;4695;-60
2024/03/04 13:53:47;;;;;;;;;;;;;;;;;;5049547;28;1148;-60
2024/03/04 13:56:13;;;;;;;;;;;;;;;;;;5041815;28;5168;-60
2024/03/04 13:58:38;;;;;;;;;;;;;;;;;;5048288;28;4918;-60
2024/03/04 14:01:03;;;;;;;;;;;;;;;;;;5045031;28;5032;-59
2024/03/04 14:03:29;;;;;;;;;;;;;;;;;;5049554;28;4992;-59
2024/03/04 14:05:54;;;;;;;;;;;;;;;;;;5030582;28;5171;-58
2024/03/04 14:08:21;;;;;;;;;;;;;;;;;;5049063;28;1414;-60
2024/03/04 14:10:46;;;;;;;;;;;;;;;;;;5042636;28;4453;-59
2024/03/04 14:13:13;;;;;;;;;;;;;;;;;;5045825;28;5077;-59
2024/03/04 14:15:39;;;;;;;;;;;;;;;;;;5058834;28;4451;-59
2024/03/04 14:18:04;;;;;;;;;;;;;;;;;;5049033;28;5151;-59
2024/03/04 14:20:29;;;;;;;;;;;;;;;;;;5048977;28;1099;-59
2024/03/04 14:22:55;;;;;;;;;;;;;;;;;;5045456;28;5028;-60
2024/03/04 14:25:21;;;;;;;;;;;;;;;;;;5045827;28;5192;-59
2024/03/04 14:27:47;;;;;;;;;;;;;;;;;;5047864;28;5346;-62
2024/03/04 14:30:14;;;;;;;;;;;;;;;;;;5046590;28;5136;-59
2024/03/04 14:32:39;;;;;;;;;;;;;;;;;;5059138;28;3523;-59
2024/03/04 14:35:05;;;;;;;;;;;;;;;;;;5047307;28;4474;-59
2024/03/04 14:37:30;;;;;;;;;;;;;;;;;;5044948;28;5154;-60
2024/03/04 14:39:56;;;;;;;;;;;;;;;;;;5046330;28;4635;-60
2024/03/04 14:42:22;;;;;;;;;;;;;;;;;;5048489;28;5021;-60
2024/03/04 14:44:48;;;;;;;;;;;;;;;;;;5046338;28;1663;-60
2024/03/04 14:47:13;;;;;;;;;;;;;;;;;;5046778;28;5014;-59
2024/03/04 14:49:41;;;;;;;;;;;;;;;;;;5048250;28;4956;-59
2024/03/04 14:52:07;;;;;;;;;;;;;;;;;;5044876;28;5039;-59
2024/03/04 14:54:32;;;;;;;;;;;;;;;;;;5047705;28;5019;-59
2024/03/04 14:56:57;;;;;;;;;;;;;;;;;;5070737;28;5303;-59
2024/03/04 14:59:23;;;;;;;;;;;;;;;;;;5034321;28;1287;-59
2024/03/04 15:01:48;;;;;;;;;;;;;;;;;;5057774;28;4988;-59
2024/03/04 15:04:14;;;;;;;;;;;;;;;;;;5048143;28;5187;-59
2024/03/04 15:06:39;;;;;;;;;;;;;;;;;;5040740;28;4682;-60
2024/03/04 15:09:04;;;;;;;;;;;;;;;;;;5047305;28;5303;-59
2024/03/04 15:11:30;;;;;;;;;;;;;;;;;;5061571;28;1241;-58
2024/03/04 15:13:55;;;;;;;;;;;;;;;;;;5048724;28;4453;-59
2024/03/04 15:16:22;;;;;;;;;;;;;;;;;;5057137;28;4954;-59
2024/03/04 15:18:47;;;;;;;;;;;;;;;;;;5037441;28;5188;-60
2024/03/04 15:21:13;;;;;;;;;;;;;;;;;;5052420;28;4818;-59
2024/03/04 15:23:38;;;;;;;;;;;;;;;;;;5052858;28;1915;-59
2024/03/04 15:26:04;;;;;;;;;;;;;;;;;;5051004;28;4663;-59
2024/03/04 15:28:29;;;;;;;;;;;;;;;;;;5029725;28;5199;-59
2024/03/04 15:30:54;;;;;;;;;;;;;;;;;;5065209;28;4599;-59
2024/03/04 15:33:20;;;;;;;;;;;;;;;;;;5049290;28;5235;-59
2024/03/04 15:35:46;;;;;;;;;;;;;;;;;;5060176;28;3324;-59
2024/03/04 15:38:11;;;;;;;;;;;;;;;;;;5048767;28;4843;-61
2024/03/04 15:40:36;;;;;;;;;;;;;;;;;;5047047;28;4510;-59
2024/03/04 15:43:02;;;;;;;;;;;;;;;;;;5048178;28;4876;-59
2024/03/04 15:45:27;;;;;;;;;;;;;;;;;;5047268;28;4902;-59
2024/03/04 15:47:52;;;;;;;;;;;;;;;;;;5048543;28;3438;-60
2024/03/04 15:50:18;;;;;;;;;;;;;;;;;;5045918;28;5049;-59
2024/03/04 15:52:44;;;;;;;;;;;;;;;;;;5038870;28;5153;-59
2024/03/04 15:55:13;;;;;;;;;;;;;;;;;;5046135;28;5372;-59
2024/03/04 15:57:39;;;;;;;;;;;;;;;;;;5052069;28;5132;-59
2024/03/04 16:00:10;;;;;;;;;;;;;;;;;;5045144;28;5066;-60
2024/03/04 16:02:35;;;;;;;;;;;;;;;;;;5044496;28;3174;-59
2024/03/04 16:05:01;;;;;;;;;;;;;;;;;;5057278;28;4687;-59
2024/03/04 16:07:26;;;;;;;;;;;;;;;;;;5050967;28;5089;-58
2024/03/04 16:09:51;;;;;;;;;;;;;;;;;;5045167;28;4760;-59
2024/03/04 16:12:17;;;;;;;;;;;;;;;;;;5042642;28;5069;-58
2024/03/04 16:14:42;;;;;;;;;;;;;;;;;;5046550;28;3750;-59
2024/03/04 16:17:08;;;;;;;;;;;;;;;;;;5042813;28;4423;-59
2024/03/04 16:19:33;;;;;;;;;;;;;;;;;;5041735;28;5445;-59
2024/03/04 16:21:59;;;;;;;;;;;;;;;;;;5045165;28;5031;-59
2024/03/04 16:24:24;;;;;;;;;;;;;;;;;;5057422;28;4457;-58
2024/03/04 16:26:51;;;;;;;;;;;;;;;;;;5046562;28;3562;-58
2024/03/04 16:29:17;;;;;;;;;;;;;;;;;;5039314;28;5152;-58
2024/03/04 16:31:43;;;;;;;;;;;;;;;;;;5052717;28;5096;-58
2024/03/04 16:34:09;;;;;;;;;;;;;;;;;;5041963;28;5392;-58
2024/03/04 16:36:34;;;;;;;;;;;;;;;;;;5031993;28;4515;-58
2024/03/04 16:38:59;;;;;;;;;;;;;;;;;;5045690;28;5180;-58
2024/03/04 16:41:25;;;;;;;;;;;;;;;;;;5038176;28;3423;-58
2024/03/04 16:43:51;;;;;;;;;;;;;;;;;;5034848;28;4814;-61
2024/03/04 16:46:16;;;;;;;;;;;;;;;;;;5046877;28;4683;-57
2024/03/04 16:48:41;;;;;;;;;;;;;;;;;;5045933;28;4687;-59
2024/03/04 16:51:13;;;;;;;;;;;;;;;;;;5056835;28;5133;-63
2024/03/04 16:53:38;;;;;;;;;;;;;;;;;;5052312;28;3372;-58